Terminal Aerodrome Forecast
Issued by NWS Albany, NY

Home | Current Version | Previous Version | Text Only | Print | Product List | Glossary On
Versions: 1 2 3 4 5 6 7 8 9 10 11 12 13 14 15 16 17 18 19 20 21 22
653
FTUS41 KALY 191212 AAA
TAFALB
TAF AMD
KALB 191212Z 1912/2012 00000KT P6SM BKN035
      TEMPO 1912/1913 1SM BR BKN002
     FM191300 05003KT P6SM FEW008 SCT020
     FM191500 04005KT P6SM BKN035 BKN100 BKN200
     FM200000 36006KT P6SM VCSH OVC040
     FM200600 35006KT P6SM BKN025 OVC040=

USA.gov is the U.S. government's official web portal to all federal, state and local government web resources and services.